sensor_id;sensor_type;location;lat;lon;timestamp;P1;durP1;ratioP1;P2;durP2;ratioP2
46158;SDS011;31888;44.512;26.104;2023-06-26T00:01:56;24.17;;;8.90;;
46158;SDS011;31888;44.512;26.104;2023-06-26T00:04:21;17.58;;;9.00;;
46158;SDS011;31888;44.512;26.104;2023-06-26T00:06:45;20.90;;;8.88;;
46158;SDS011;31888;44.512;26.104;2023-06-26T00:09:13;20.27;;;9.32;;
46158;SDS011;31888;44.512;26.104;2023-06-26T00:11:39;24.70;;;9.25;;
46158;SDS011;31888;44.512;26.104;2023-06-26T00:14:04;24.85;;;10.25;;
46158;SDS011;31888;44.512;26.104;2023-06-26T00:16:29;25.02;;;9.25;;
46158;SDS011;31888;44.512;26.104;2023-06-26T00:18:54;26.70;;;9.38;;
46158;SDS011;31888;44.512;26.104;2023-06-26T00:21:19;16.70;;;8.15;;
46158;SDS011;31888;44.512;26.104;2023-06-26T00:23:43;20.98;;;8.98;;
46158;SDS011;31888;44.512;26.104;2023-06-26T00:26:09;27.58;;;8.82;;
46158;SDS011;31888;44.512;26.104;2023-06-26T00:28:35;18.80;;;8.88;;
46158;SDS011;31888;44.512;26.104;2023-06-26T00:31:02;22.23;;;9.52;;
46158;SDS011;31888;44.512;26.104;2023-06-26T00:33:27;20.08;;;9.40;;
46158;SDS011;31888;44.512;26.104;2023-06-26T00:35:52;20.15;;;8.23;;
46158;SDS011;31888;44.512;26.104;2023-06-26T00:38:17;20.38;;;8.85;;
46158;SDS011;31888;44.512;26.104;2023-06-26T00:40:42;30.05;;;11.25;;
46158;SDS011;31888;44.512;26.104;2023-06-26T00:43:07;24.10;;;9.20;;
46158;SDS011;31888;44.512;26.104;2023-06-26T00:45:33;27.70;;;9.93;;
46158;SDS011;31888;44.512;26.104;2023-06-26T00:48:05;21.30;;;8.48;;
46158;SDS011;31888;44.512;26.104;2023-06-26T00:50:30;30.38;;;9.95;;
46158;SDS011;31888;44.512;26.104;2023-06-26T00:52:55;28.65;;;10.40;;
46158;SDS011;31888;44.512;26.104;2023-06-26T00:55:23;28.35;;;9.65;;
46158;SDS011;31888;44.512;26.104;2023-06-26T00:57:47;25.30;;;9.10;;
46158;SDS011;31888;44.512;26.104;2023-06-26T01:00:13;22.98;;;7.80;;
46158;SDS011;31888;44.512;26.104;2023-06-26T01:02:40;20.92;;;8.45;;
46158;SDS011;31888;44.512;26.104;2023-06-26T01:05:05;19.88;;;8.52;;
46158;SDS011;31888;44.512;26.104;2023-06-26T01:07:33;23.00;;;8.70;;
46158;SDS011;31888;44.512;26.104;2023-06-26T01:10:00;24.08;;;8.02;;
46158;SDS011;31888;44.512;26.104;2023-06-26T01:12:26;27.52;;;9.00;;
46158;SDS011;31888;44.512;26.104;2023-06-26T01:14:50;17.90;;;7.32;;
46158;SDS011;31888;44.512;26.104;2023-06-26T01:17:15;23.33;;;7.88;;
46158;SDS011;31888;44.512;26.104;2023-06-26T01:19:42;18.35;;;8.05;;
46158;SDS011;31888;44.512;26.104;2023-06-26T01:22:10;22.48;;;9.38;;
46158;SDS011;31888;44.512;26.104;2023-06-26T01:24:44;14.15;;;7.28;;
46158;SDS011;31888;44.512;26.104;2023-06-26T01:27:19;17.55;;;8.00;;
46158;SDS011;31888;44.512;26.104;2023-06-26T01:29:45;15.30;;;8.20;;
46158;SDS011;31888;44.512;26.104;2023-06-26T01:32:12;18.27;;;8.43;;
46158;SDS011;31888;44.512;26.104;2023-06-26T01:34:36;26.77;;;8.40;;
46158;SDS011;31888;44.512;26.104;2023-06-26T01:37:04;16.95;;;8.85;;
46158;SDS011;31888;44.512;26.104;2023-06-26T01:39:29;18.50;;;9.10;;
46158;SDS011;31888;44.512;26.104;2023-06-26T01:41:54;21.45;;;8.07;;
46158;SDS011;31888;44.512;26.104;2023-06-26T01:44:23;15.82;;;8.30;;
46158;SDS011;31888;44.512;26.104;2023-06-26T01:46:54;15.82;;;8.68;;
46158;SDS011;31888;44.512;26.104;2023-06-26T01:49:25;12.73;;;7.05;;
46158;SDS011;31888;44.512;26.104;2023-06-26T01:52:03;17.98;;;7.38;;
46158;SDS011;31888;44.512;26.104;2023-06-26T01:54:36;15.45;;;7.72;;
46158;SDS011;31888;44.512;26.104;2023-06-26T01:57:05;16.35;;;7.63;;
46158;SDS011;31888;44.512;26.104;2023-06-26T01:59:34;12.23;;;7.53;;
46158;SDS011;31888;44.512;26.104;2023-06-26T02:02:00;18.15;;;9.02;;
46158;SDS011;31888;44.512;26.104;2023-06-26T02:04:25;17.35;;;8.52;;
46158;SDS011;31888;44.512;26.104;2023-06-26T02:06:50;15.43;;;7.60;;
46158;SDS011;31888;44.512;26.104;2023-06-26T02:09:16;20.08;;;8.80;;
46158;SDS011;31888;44.512;26.104;2023-06-26T02:11:40;13.77;;;7.85;;
46158;SDS011;31888;44.512;26.104;2023-06-26T02:14:05;18.20;;;7.72;;
46158;SDS011;31888;44.512;26.104;2023-06-26T02:16:34;14.70;;;7.95;;
46158;SDS011;31888;44.512;26.104;2023-06-26T02:18:58;17.45;;;7.70;;
46158;SDS011;31888;44.512;26.104;2023-06-26T02:21:43;15.82;;;7.72;;
46158;SDS011;31888;44.512;26.104;2023-06-26T02:24:08;14.25;;;7.97;;
46158;SDS011;31888;44.512;26.104;2023-06-26T02:26:32;14.30;;;7.90;;
46158;SDS011;31888;44.512;26.104;2023-06-26T02:28:58;15.25;;;7.32;;
46158;SDS011;31888;44.512;26.104;2023-06-26T02:31:22;15.70;;;8.48;;
46158;SDS011;31888;44.512;26.104;2023-06-26T02:33:52;17.23;;;7.68;;
46158;SDS011;31888;44.512;26.104;2023-06-26T02:36:16;13.82;;;7.93;;
46158;SDS011;31888;44.512;26.104;2023-06-26T02:38:41;14.45;;;8.18;;
46158;SDS011;31888;44.512;26.104;2023-06-26T02:41:06;16.58;;;7.78;;
46158;SDS011;31888;44.512;26.104;2023-06-26T02:43:32;16.98;;;7.35;;
46158;SDS011;31888;44.512;26.104;2023-06-26T02:45:56;16.77;;;8.93;;
46158;SDS011;31888;44.512;26.104;2023-06-26T02:48:21;19.90;;;9.65;;
46158;SDS011;31888;44.512;26.104;2023-06-26T02:50:47;14.13;;;8.38;;
46158;SDS011;31888;44.512;26.104;2023-06-26T02:53:14;15.77;;;9.10;;
46158;SDS011;31888;44.512;26.104;2023-06-26T02:55:41;22.38;;;9.88;;
46158;SDS011;31888;44.512;26.104;2023-06-26T02:58:05;22.67;;;9.95;;
46158;SDS011;31888;44.512;26.104;2023-06-26T03:00:31;19.30;;;8.68;;
46158;SDS011;31888;44.512;26.104;2023-06-26T03:02:59;16.10;;;8.77;;
46158;SDS011;31888;44.512;26.104;2023-06-26T03:05:24;14.63;;;8.75;;
46158;SDS011;31888;44.512;26.104;2023-06-26T03:07:52;15.80;;;8.35;;
46158;SDS011;31888;44.512;26.104;2023-06-26T03:10:17;16.52;;;8.52;;
46158;SDS011;31888;44.512;26.104;2023-06-26T03:12:42;18.30;;;8.90;;
46158;SDS011;31888;44.512;26.104;2023-06-26T03:15:07;15.23;;;8.98;;
46158;SDS011;31888;44.512;26.104;2023-06-26T03:17:34;13.57;;;9.10;;
46158;SDS011;31888;44.512;26.104;2023-06-26T03:20:02;16.73;;;9.05;;
46158;SDS011;31888;44.512;26.104;2023-06-26T03:22:50;14.23;;;8.65;;
46158;SDS011;31888;44.512;26.104;2023-06-26T03:25:17;20.15;;;9.48;;
46158;SDS011;31888;44.512;26.104;2023-06-26T03:27:43;17.63;;;8.40;;
46158;SDS011;31888;44.512;26.104;2023-06-26T03:30:10;13.05;;;8.30;;
46158;SDS011;31888;44.512;26.104;2023-06-26T03:32:37;14.43;;;9.35;;
46158;SDS011;31888;44.512;26.104;2023-06-26T03:35:03;17.75;;;9.30;;
46158;SDS011;31888;44.512;26.104;2023-06-26T03:37:29;21.60;;;10.05;;
46158;SDS011;31888;44.512;26.104;2023-06-26T03:39:55;16.40;;;9.40;;
46158;SDS011;31888;44.512;26.104;2023-06-26T03:42:19;15.35;;;9.50;;
46158;SDS011;31888;44.512;26.104;2023-06-26T03:44:44;15.43;;;8.95;;
46158;SDS011;31888;44.512;26.104;2023-06-26T03:47:12;13.25;;;9.23;;
46158;SDS011;31888;44.512;26.104;2023-06-26T03:49:37;18.63;;;9.70;;
46158;SDS011;31888;44.512;26.104;2023-06-26T03:52:01;16.98;;;9.00;;
46158;SDS011;31888;44.512;26.104;2023-06-26T03:54:29;17.30;;;9.38;;
46158;SDS011;31888;44.512;26.104;2023-06-26T03:57:00;16.75;;;9.55;;
46158;SDS011;31888;44.512;26.104;2023-06-26T03:59:25;18.80;;;8.95;;
46158;SDS011;31888;44.512;26.104;2023-06-26T04:01:50;19.38;;;8.73;;
46158;SDS011;31888;44.512;26.104;2023-06-26T04:04:16;18.02;;;9.05;;
46158;SDS011;31888;44.512;26.104;2023-06-26T04:06:40;20.35;;;9.13;;
46158;SDS011;31888;44.512;26.104;2023-06-26T04:09:05;18.35;;;8.65;;
46158;SDS011;31888;44.512;26.104;2023-06-26T04:11:30;18.73;;;8.98;;
46158;SDS011;31888;44.512;26.104;2023-06-26T04:13:57;17.13;;;9.10;;
46158;SDS011;31888;44.512;26.104;2023-06-26T04:16:22;15.73;;;8.43;;
46158;SDS011;31888;44.512;26.104;2023-06-26T04:18:48;22.83;;;9.07;;
46158;SDS011;31888;44.512;26.104;2023-06-26T04:21:13;13.60;;;7.22;;
46158;SDS011;31888;44.512;26.104;2023-06-26T04:23:38;18.88;;;9.40;;
46158;SDS011;31888;44.512;26.104;2023-06-26T04:26:03;16.70;;;8.32;;
46158;SDS011;31888;44.512;26.104;2023-06-26T04:28:28;16.58;;;8.43;;
46158;SDS011;31888;44.512;26.104;2023-06-26T04:30:55;14.25;;;7.72;;
46158;SDS011;31888;44.512;26.104;2023-06-26T04:33:20;18.73;;;8.75;;
46158;SDS011;31888;44.512;26.104;2023-06-26T04:38:46;16.25;;;8.70;;
46158;SDS011;31888;44.512;26.104;2023-06-26T04:41:11;20.55;;;8.52;;
46158;SDS011;31888;44.512;26.104;2023-06-26T04:43:36;13.48;;;8.60;;
46158;SDS011;31888;44.512;26.104;2023-06-26T04:46:03;15.02;;;7.85;;
46158;SDS011;31888;44.512;26.104;2023-06-26T04:48:28;16.23;;;8.52;;
46158;SDS011;31888;44.512;26.104;2023-06-26T04:50:55;14.63;;;8.73;;
46158;SDS011;31888;44.512;26.104;2023-06-26T04:53:22;13.57;;;7.88;;
46158;SDS011;31888;44.512;26.104;2023-06-26T04:55:47;18.30;;;8.25;;
46158;SDS011;31888;44.512;26.104;2023-06-26T04:58:11;19.92;;;9.15;;
46158;SDS011;31888;44.512;26.104;2023-06-26T05:00:36;16.05;;;8.55;;
46158;SDS011;31888;44.512;26.104;2023-06-26T05:03:03;14.63;;;8.25;;
46158;SDS011;31888;44.512;26.104;2023-06-26T05:05:28;16.15;;;8.82;;
46158;SDS011;31888;44.512;26.104;2023-06-26T05:07:53;14.40;;;7.93;;
46158;SDS011;31888;44.512;26.104;2023-06-26T05:10:19;10.18;;;6.90;;
46158;SDS011;31888;44.512;26.104;2023-06-26T05:12:43;23.13;;;9.50;;
46158;SDS011;31888;44.512;26.104;2023-06-26T05:15:08;19.38;;;9.55;;
46158;SDS011;31888;44.512;26.104;2023-06-26T05:17:34;15.63;;;10.18;;
46158;SDS011;31888;44.512;26.104;2023-06-26T05:20:01;13.77;;;9.95;;
46158;SDS011;31888;44.512;26.104;2023-06-26T05:22:26;17.33;;;10.40;;
46158;SDS011;31888;44.512;26.104;2023-06-26T05:24:51;22.98;;;10.73;;
46158;SDS011;31888;44.512;26.104;2023-06-26T05:27:22;18.42;;;10.18;;
46158;SDS011;31888;44.512;26.104;2023-06-26T05:29:47;19.98;;;10.88;;
46158;SDS011;31888;44.512;26.104;2023-06-26T05:32:13;19.73;;;10.35;;
46158;SDS011;31888;44.512;26.104;2023-06-26T05:34:41;18.50;;;10.52;;
46158;SDS011;31888;44.512;26.104;2023-06-26T05:37:08;19.45;;;10.68;;
46158;SDS011;31888;44.512;26.104;2023-06-26T05:39:34;20.25;;;10.63;;
46158;SDS011;31888;44.512;26.104;2023-06-26T05:41:59;21.25;;;11.27;;
46158;SDS011;31888;44.512;26.104;2023-06-26T05:44:25;18.70;;;10.45;;
46158;SDS011;31888;44.512;26.104;2023-06-26T05:46:50;19.60;;;10.65;;
46158;SDS011;31888;44.512;26.104;2023-06-26T05:49:15;18.25;;;9.85;;
46158;SDS011;31888;44.512;26.104;2023-06-26T05:51:41;22.20;;;11.27;;
46158;SDS011;31888;44.512;26.104;2023-06-26T05:54:09;16.15;;;10.60;;
46158;SDS011;31888;44.512;26.104;2023-06-26T05:56:36;19.95;;;11.10;;
46158;SDS011;31888;44.512;26.104;2023-06-26T05:59:04;22.52;;;11.13;;
46158;SDS011;31888;44.512;26.104;2023-06-26T06:01:31;17.98;;;11.57;;
46158;SDS011;31888;44.512;26.104;2023-06-26T06:03:58;14.55;;;9.57;;
46158;SDS011;31888;44.512;26.104;2023-06-26T06:06:23;22.55;;;10.73;;
46158;SDS011;31888;44.512;26.104;2023-06-26T06:08:47;18.73;;;11.90;;
46158;SDS011;31888;44.512;26.104;2023-06-26T06:11:14;15.35;;;9.73;;
46158;SDS011;31888;44.512;26.104;2023-06-26T06:13:38;8.38;;;5.07;;
46158;SDS011;31888;44.512;26.104;2023-06-26T06:16:03;12.40;;;6.60;;
46158;SDS011;31888;44.512;26.104;2023-06-26T06:18:28;10.05;;;5.88;;
46158;SDS011;31888;44.512;26.104;2023-06-26T06:20:53;8.23;;;5.18;;
46158;SDS011;31888;44.512;26.104;2023-06-26T06:23:18;17.30;;;9.45;;
46158;SDS011;31888;44.512;26.104;2023-06-26T06:25:42;19.00;;;7.18;;
46158;SDS011;31888;44.512;26.104;2023-06-26T06:28:11;19.45;;;8.73;;
46158;SDS011;31888;44.512;26.104;2023-06-26T06:30:40;20.98;;;7.97;;
46158;SDS011;31888;44.512;26.104;2023-06-26T06:33:08;22.63;;;7.38;;
46158;SDS011;31888;44.512;26.104;2023-06-26T06:35:32;16.45;;;7.13;;
46158;SDS011;31888;44.512;26.104;2023-06-26T06:37:57;17.05;;;9.38;;
46158;SDS011;31888;44.512;26.104;2023-06-26T06:40:22;15.80;;;10.70;;
46158;SDS011;31888;44.512;26.104;2023-06-26T06:42:51;22.23;;;12.02;;
46158;SDS011;31888;44.512;26.104;2023-06-26T06:45:17;21.92;;;11.70;;
46158;SDS011;31888;44.512;26.104;2023-06-26T06:47:42;19.23;;;12.00;;
46158;SDS011;31888;44.512;26.104;2023-06-26T06:50:06;22.00;;;11.85;;
46158;SDS011;31888;44.512;26.104;2023-06-26T06:52:31;19.58;;;10.50;;
46158;SDS011;31888;44.512;26.104;2023-06-26T06:54:57;22.42;;;12.43;;
46158;SDS011;31888;44.512;26.104;2023-06-26T06:57:22;21.08;;;10.25;;
46158;SDS011;31888;44.512;26.104;2023-06-26T06:59:47;12.93;;;8.07;;
46158;SDS011;31888;44.512;26.104;2023-06-26T07:02:19;16.00;;;9.93;;
46158;SDS011;31888;44.512;26.104;2023-06-26T07:04:44;14.43;;;7.78;;
46158;SDS011;31888;44.512;26.104;2023-06-26T07:07:09;15.98;;;8.60;;
46158;SDS011;31888;44.512;26.104;2023-06-26T07:09:33;19.95;;;10.30;;
46158;SDS011;31888;44.512;26.104;2023-06-26T07:11:58;17.05;;;10.45;;
46158;SDS011;31888;44.512;26.104;2023-06-26T07:14:22;17.73;;;11.57;;
46158;SDS011;31888;44.512;26.104;2023-06-26T07:16:47;14.30;;;9.13;;
46158;SDS011;31888;44.512;26.104;2023-06-26T07:19:13;18.75;;;11.02;;
46158;SDS011;31888;44.512;26.104;2023-06-26T07:21:38;16.17;;;9.32;;
46158;SDS011;31888;44.512;26.104;2023-06-26T07:24:04;18.90;;;10.18;;
46158;SDS011;31888;44.512;26.104;2023-06-26T07:26:28;15.07;;;9.27;;
46158;SDS011;31888;44.512;26.104;2023-06-26T07:29:07;14.68;;;9.82;;
46158;SDS011;31888;44.512;26.104;2023-06-26T07:31:31;15.70;;;9.23;;
46158;SDS011;31888;44.512;26.104;2023-06-26T07:33:56;15.48;;;8.75;;
46158;SDS011;31888;44.512;26.104;2023-06-26T07:36:25;18.73;;;10.50;;
46158;SDS011;31888;44.512;26.104;2023-06-26T07:38:50;14.75;;;9.52;;
46158;SDS011;31888;44.512;26.104;2023-06-26T07:41:14;22.17;;;9.18;;
46158;SDS011;31888;44.512;26.104;2023-06-26T07:43:39;14.90;;;9.55;;
46158;SDS011;31888;44.512;26.104;2023-06-26T07:46:03;13.57;;;8.27;;
46158;SDS011;31888;44.512;26.104;2023-06-26T07:48:28;12.95;;;8.25;;
46158;SDS011;31888;44.512;26.104;2023-06-26T07:50:53;17.27;;;9.77;;
46158;SDS011;31888;44.512;26.104;2023-06-26T07:53:19;20.70;;;9.15;;
46158;SDS011;31888;44.512;26.104;2023-06-26T07:55:44;15.00;;;7.70;;
46158;SDS011;31888;44.512;26.104;2023-06-26T07:58:09;17.67;;;8.90;;
46158;SDS011;31888;44.512;26.104;2023-06-26T08:00:34;16.40;;;7.18;;
46158;SDS011;31888;44.512;26.104;2023-06-26T08:02:59;9.27;;;6.88;;
46158;SDS011;31888;44.512;26.104;2023-06-26T08:05:26;12.90;;;8.18;;
46158;SDS011;31888;44.512;26.104;2023-06-26T08:07:51;16.13;;;6.57;;
46158;SDS011;31888;44.512;26.104;2023-06-26T08:10:18;14.25;;;6.78;;
46158;SDS011;31888;44.512;26.104;2023-06-26T08:12:45;9.13;;;6.03;;
46158;SDS011;31888;44.512;26.104;2023-06-26T08:15:13;10.88;;;7.03;;
46158;SDS011;31888;44.512;26.104;2023-06-26T08:17:37;14.10;;;6.57;;
46158;SDS011;31888;44.512;26.104;2023-06-26T08:20:05;11.07;;;7.32;;
46158;SDS011;31888;44.512;26.104;2023-06-26T08:22:31;15.77;;;7.13;;
46158;SDS011;31888;44.512;26.104;2023-06-26T08:24:56;13.52;;;6.03;;
46158;SDS011;31888;44.512;26.104;2023-06-26T08:27:27;7.35;;;5.43;;
46158;SDS011;31888;44.512;26.104;2023-06-26T08:29:52;12.40;;;5.40;;
46158;SDS011;31888;44.512;26.104;2023-06-26T08:32:20;10.65;;;6.03;;
46158;SDS011;31888;44.512;26.104;2023-06-26T08:34:47;13.27;;;5.40;;
46158;SDS011;31888;44.512;26.104;2023-06-26T08:37:13;11.30;;;4.90;;
46158;SDS011;31888;44.512;26.104;2023-06-26T08:39:40;8.32;;;4.28;;
46158;SDS011;31888;44.512;26.104;2023-06-26T08:42:05;9.05;;;4.20;;
46158;SDS011;31888;44.512;26.104;2023-06-26T08:44:31;14.02;;;5.13;;
46158;SDS011;31888;44.512;26.104;2023-06-26T08:46:59;7.97;;;4.05;;
46158;SDS011;31888;44.512;26.104;2023-06-26T08:49:25;9.35;;;4.40;;
46158;SDS011;31888;44.512;26.104;2023-06-26T08:51:59;7.63;;;4.20;;
46158;SDS011;31888;44.512;26.104;2023-06-26T08:54:31;16.70;;;5.53;;
46158;SDS011;31888;44.512;26.104;2023-06-26T08:57:04;12.98;;;4.43;;
46158;SDS011;31888;44.512;26.104;2023-06-26T08:59:45;12.48;;;5.88;;
46158;SDS011;31888;44.512;26.104;2023-06-26T09:02:12;11.77;;;4.47;;
46158;SDS011;31888;44.512;26.104;2023-06-26T09:04:53;8.80;;;4.10;;
46158;SDS011;31888;44.512;26.104;2023-06-26T09:07:23;5.53;;;3.78;;
46158;SDS011;31888;44.512;26.104;2023-06-26T09:09:50;7.32;;;3.28;;
46158;SDS011;31888;44.512;26.104;2023-06-26T09:12:16;7.15;;;4.10;;
46158;SDS011;31888;44.512;26.104;2023-06-26T09:14:43;8.20;;;4.07;;
46158;SDS011;31888;44.512;26.104;2023-06-26T09:17:13;13.38;;;4.00;;
46158;SDS011;31888;44.512;26.104;2023-06-26T09:19:38;5.25;;;3.72;;
46158;SDS011;31888;44.512;26.104;2023-06-26T09:22:05;7.20;;;3.20;;
46158;SDS011;31888;44.512;26.104;2023-06-26T09:24:40;5.80;;;3.30;;
46158;SDS011;31888;44.512;26.104;2023-06-26T09:27:05;6.40;;;3.40;;
46158;SDS011;31888;44.512;26.104;2023-06-26T09:29:33;5.05;;;3.22;;
46158;SDS011;31888;44.512;26.104;2023-06-26T09:32:00;6.90;;;3.38;;
46158;SDS011;31888;44.512;26.104;2023-06-26T09:34:30;6.25;;;3.20;;
46158;SDS011;31888;44.512;26.104;2023-06-26T09:36:58;5.32;;;3.17;;
46158;SDS011;31888;44.512;26.104;2023-06-26T09:39:25;5.78;;;2.70;;
46158;SDS011;31888;44.512;26.104;2023-06-26T09:41:52;5.80;;;2.88;;
46158;SDS011;31888;44.512;26.104;2023-06-26T09:44:19;6.45;;;3.20;;
46158;SDS011;31888;44.512;26.104;2023-06-26T09:46:44;5.95;;;3.30;;
46158;SDS011;31888;44.512;26.104;2023-06-26T09:49:11;5.32;;;2.97;;
46158;SDS011;31888;44.512;26.104;2023-06-26T09:51:37;8.93;;;3.58;;
46158;SDS011;31888;44.512;26.104;2023-06-26T09:54:03;5.93;;;3.40;;
46158;SDS011;31888;44.512;26.104;2023-06-26T09:56:29;5.35;;;3.40;;
46158;SDS011;31888;44.512;26.104;2023-06-26T09:58:55;6.43;;;2.83;;
46158;SDS011;31888;44.512;26.104;2023-06-26T10:01:20;10.27;;;3.08;;
46158;SDS011;31888;44.512;26.104;2023-06-26T10:03:45;5.25;;;3.10;;
46158;SDS011;31888;44.512;26.104;2023-06-26T10:06:13;4.30;;;3.00;;
46158;SDS011;31888;44.512;26.104;2023-06-26T10:08:40;4.47;;;2.90;;
46158;SDS011;31888;44.512;26.104;2023-06-26T10:11:07;8.38;;;3.10;;
46158;SDS011;31888;44.512;26.104;2023-06-26T10:16:03;5.68;;;2.95;;
46158;SDS011;31888;44.512;26.104;2023-06-26T10:18:31;5.90;;;3.30;;
46158;SDS011;31888;44.512;26.104;2023-06-26T10:21:01;5.05;;;3.08;;
46158;SDS011;31888;44.512;26.104;2023-06-26T10:23:28;5.47;;;2.92;;
46158;SDS011;31888;44.512;26.104;2023-06-26T10:25:56;5.40;;;3.03;;
46158;SDS011;31888;44.512;26.104;2023-06-26T10:28:26;4.45;;;3.38;;
46158;SDS011;31888;44.512;26.104;2023-06-26T10:30:53;2.67;;;2.47;;
46158;SDS011;31888;44.512;26.104;2023-06-26T10:33:19;4.47;;;2.90;;
46158;SDS011;31888;44.512;26.104;2023-06-26T10:35:44;4.93;;;2.83;;
46158;SDS011;31888;44.512;26.104;2023-06-26T10:38:09;6.85;;;3.42;;
46158;SDS011;31888;44.512;26.104;2023-06-26T10:40:43;5.15;;;3.45;;
46158;SDS011;31888;44.512;26.104;2023-06-26T10:43:10;5.78;;;3.00;;
46158;SDS011;31888;44.512;26.104;2023-06-26T10:45:49;6.72;;;3.30;;
46158;SDS011;31888;44.512;26.104;2023-06-26T10:48:20;6.30;;;3.25;;
46158;SDS011;31888;44.512;26.104;2023-06-26T10:50:47;5.35;;;2.90;;
46158;SDS011;31888;44.512;26.104;2023-06-26T10:53:21;8.93;;;3.45;;
46158;SDS011;31888;44.512;26.104;2023-06-26T10:55:55;8.07;;;3.72;;
46158;SDS011;31888;44.512;26.104;2023-06-26T10:58:29;6.75;;;3.60;;
46158;SDS011;31888;44.512;26.104;2023-06-26T11:01:08;4.72;;;2.95;;
46158;SDS011;31888;44.512;26.104;2023-06-26T11:03:41;6.65;;;3.20;;
46158;SDS011;31888;44.512;26.104;2023-06-26T11:06:11;4.85;;;2.95;;
46158;SDS011;31888;44.512;26.104;2023-06-26T11:08:46;4.45;;;3.20;;
46158;SDS011;31888;44.512;26.104;2023-06-26T11:11:13;4.75;;;3.35;;
46158;SDS011;31888;44.512;26.104;2023-06-26T11:13:38;6.53;;;3.28;;
46158;SDS011;31888;44.512;26.104;2023-06-26T11:16:04;6.03;;;3.05;;
46158;SDS011;31888;44.512;26.104;2023-06-26T11:18:29;5.53;;;3.15;;
46158;SDS011;31888;44.512;26.104;2023-06-26T11:20:55;13.73;;;4.07;;
46158;SDS011;31888;44.512;26.104;2023-06-26T11:23:29;3.97;;;3.33;;
46158;SDS011;31888;44.512;26.104;2023-06-26T11:25:57;5.00;;;3.20;;
46158;SDS011;31888;44.512;26.104;2023-06-26T11:28:24;7.60;;;2.95;;
46158;SDS011;31888;44.512;26.104;2023-06-26T11:30:50;4.20;;;3.45;;
46158;SDS011;31888;44.512;26.104;2023-06-26T11:33:16;4.85;;;3.50;;
46158;SDS011;31888;44.512;26.104;2023-06-26T11:35:41;4.10;;;3.45;;
46158;SDS011;31888;44.512;26.104;2023-06-26T11:38:06;16.50;;;3.97;;
46158;SDS011;31888;44.512;26.104;2023-06-26T11:40:32;8.77;;;3.53;;
46158;SDS011;31888;44.512;26.104;2023-06-26T11:42:59;30.30;;;6.30;;
46158;SDS011;31888;44.512;26.104;2023-06-26T11:45:25;5.47;;;3.70;;
46158;SDS011;31888;44.512;26.104;2023-06-26T11:47:52;7.70;;;4.10;;
46158;SDS011;31888;44.512;26.104;2023-06-26T11:50:19;8.68;;;4.10;;
46158;SDS011;31888;44.512;26.104;2023-06-26T11:52:44;10.50;;;4.43;;
46158;SDS011;31888;44.512;26.104;2023-06-26T11:55:09;9.27;;;3.63;;
46158;SDS011;31888;44.512;26.104;2023-06-26T11:57:35;7.55;;;4.00;;
46158;SDS011;31888;44.512;26.104;2023-06-26T12:00:09;6.88;;;4.03;;
46158;SDS011;31888;44.512;26.104;2023-06-26T12:02:36;4.72;;;3.42;;
46158;SDS011;31888;44.512;26.104;2023-06-26T12:05:03;6.90;;;3.55;;
46158;SDS011;31888;44.512;26.104;2023-06-26T12:07:29;8.93;;;4.10;;
46158;SDS011;31888;44.512;26.104;2023-06-26T12:09:55;6.18;;;3.58;;
46158;SDS011;31888;44.512;26.104;2023-06-26T12:12:21;4.32;;;3.83;;
46158;SDS011;31888;44.512;26.104;2023-06-26T12:14:46;6.43;;;3.50;;
46158;SDS011;31888;44.512;26.104;2023-06-26T12:17:11;8.00;;;4.15;;
46158;SDS011;31888;44.512;26.104;2023-06-26T12:19:38;6.53;;;3.70;;
46158;SDS011;31888;44.512;26.104;2023-06-26T12:22:06;7.00;;;3.90;;
46158;SDS011;31888;44.512;26.104;2023-06-26T12:24:31;5.32;;;3.58;;
46158;SDS011;31888;44.512;26.104;2023-06-26T12:26:55;8.30;;;3.92;;
46158;SDS011;31888;44.512;26.104;2023-06-26T12:29:20;4.55;;;3.75;;
46158;SDS011;31888;44.512;26.104;2023-06-26T12:31:45;5.40;;;3.58;;
46158;SDS011;31888;44.512;26.104;2023-06-26T12:34:13;8.45;;;4.05;;
46158;SDS011;31888;44.512;26.104;2023-06-26T12:36:43;5.78;;;3.47;;
46158;SDS011;31888;44.512;26.104;2023-06-26T12:39:10;6.38;;;3.70;;
46158;SDS011;31888;44.512;26.104;2023-06-26T12:41:36;4.20;;;3.50;;
46158;SDS011;31888;44.512;26.104;2023-06-26T12:44:15;5.13;;;3.53;;
46158;SDS011;31888;44.512;26.104;2023-06-26T12:46:41;4.78;;;3.42;;
46158;SDS011;31888;44.512;26.104;2023-06-26T12:49:06;4.90;;;3.45;;
46158;SDS011;31888;44.512;26.104;2023-06-26T12:51:52;32.15;;;5.70;;
46158;SDS011;31888;44.512;26.104;2023-06-26T12:54:17;4.50;;;3.97;;
46158;SDS011;31888;44.512;26.104;2023-06-26T12:56:42;3.88;;;3.15;;
46158;SDS011;31888;44.512;26.104;2023-06-26T12:59:09;6.03;;;3.58;;
46158;SDS011;31888;44.512;26.104;2023-06-26T13:01:35;4.53;;;3.22;;
46158;SDS011;31888;44.512;26.104;2023-06-26T13:04:01;5.50;;;3.22;;
46158;SDS011;31888;44.512;26.104;2023-06-26T13:06:27;5.72;;;3.00;;
46158;SDS011;31888;44.512;26.104;2023-06-26T13:08:53;5.35;;;3.50;;
46158;SDS011;31888;44.512;26.104;2023-06-26T13:11:17;5.65;;;3.65;;
46158;SDS011;31888;44.512;26.104;2023-06-26T13:13:42;6.35;;;3.35;;
46158;SDS011;31888;44.512;26.104;2023-06-26T13:16:13;3.85;;;3.22;;
46158;SDS011;31888;44.512;26.104;2023-06-26T13:18:37;4.68;;;3.20;;
46158;SDS011;31888;44.512;26.104;2023-06-26T13:21:02;8.27;;;3.17;;
46158;SDS011;31888;44.512;26.104;2023-06-26T13:23:29;5.57;;;3.20;;
46158;SDS011;31888;44.512;26.104;2023-06-26T13:25:55;4.18;;;3.30;;
46158;SDS011;31888;44.512;26.104;2023-06-26T13:28:20;5.50;;;3.13;;
46158;SDS011;31888;44.512;26.104;2023-06-26T13:30:47;4.25;;;3.33;;
46158;SDS011;31888;44.512;26.104;2023-06-26T13:33:16;4.57;;;2.92;;
46158;SDS011;31888;44.512;26.104;2023-06-26T13:35:41;4.40;;;2.95;;
46158;SDS011;31888;44.512;26.104;2023-06-26T13:38:06;5.85;;;2.97;;
46158;SDS011;31888;44.512;26.104;2023-06-26T13:40:31;11.27;;;3.78;;
46158;SDS011;31888;44.512;26.104;2023-06-26T13:42:57;5.68;;;3.67;;
46158;SDS011;31888;44.512;26.104;2023-06-26T13:45:25;4.38;;;2.97;;
46158;SDS011;31888;44.512;26.104;2023-06-26T13:47:53;8.30;;;4.03;;
46158;SDS011;31888;44.512;26.104;2023-06-26T13:50:18;6.88;;;3.35;;
46158;SDS011;31888;44.512;26.104;2023-06-26T13:52:45;5.47;;;3.58;;
46158;SDS011;31888;44.512;26.104;2023-06-26T13:55:10;3.45;;;3.13;;
46158;SDS011;31888;44.512;26.104;2023-06-26T13:57:36;5.78;;;3.65;;
46158;SDS011;31888;44.512;26.104;2023-06-26T14:00:08;7.50;;;3.70;;
46158;SDS011;31888;44.512;26.104;2023-06-26T14:02:37;5.03;;;3.50;;
46158;SDS011;31888;44.512;26.104;2023-06-26T14:05:02;5.50;;;3.38;;
46158;SDS011;31888;44.512;26.104;2023-06-26T14:07:28;4.75;;;3.58;;
46158;SDS011;31888;44.512;26.104;2023-06-26T14:09:55;5.43;;;3.40;;
46158;SDS011;31888;44.512;26.104;2023-06-26T14:12:21;9.43;;;3.75;;
46158;SDS011;31888;44.512;26.104;2023-06-26T14:14:55;5.18;;;3.70;;
46158;SDS011;31888;44.512;26.104;2023-06-26T14:17:22;4.85;;;3.90;;
46158;SDS011;31888;44.512;26.104;2023-06-26T14:19:49;4.28;;;3.35;;
46158;SDS011;31888;44.512;26.104;2023-06-26T14:22:14;5.03;;;3.42;;
46158;SDS011;31888;44.512;26.104;2023-06-26T14:24:38;5.68;;;3.42;;
46158;SDS011;31888;44.512;26.104;2023-06-26T14:27:03;4.65;;;3.53;;
46158;SDS011;31888;44.512;26.104;2023-06-26T14:29:28;4.63;;;3.28;;